sensor_id;sensor_type;location;lat;lon;timestamp;P1;durP1;ratioP1;P2;durP2;ratioP2
48487;SDS011;34289;48.572;13.378;2023-02-11T00:01:07;50.22;;;28.17;;
48487;SDS011;34289;48.572;13.378;2023-02-11T00:03:34;57.17;;;29.90;;
48487;SDS011;34289;48.572;13.378;2023-02-11T00:06:02;51.58;;;29.17;;
48487;SDS011;34289;48.572;13.378;2023-02-11T00:08:29;49.85;;;28.98;;
48487;SDS011;34289;48.572;13.378;2023-02-11T00:10:55;57.90;;;30.08;;
48487;SDS011;34289;48.572;13.378;2023-02-11T00:13:22;45.83;;;26.85;;
48487;SDS011;34289;48.572;13.378;2023-02-11T00:15:48;53.83;;;27.50;;
48487;SDS011;34289;48.572;13.378;2023-02-11T00:18:14;47.78;;;28.13;;
48487;SDS011;34289;48.572;13.378;2023-02-11T00:20:40;57.65;;;30.17;;
48487;SDS011;34289;48.572;13.378;2023-02-11T00:23:07;45.65;;;25.42;;
48487;SDS011;34289;48.572;13.378;2023-02-11T00:25:33;41.58;;;23.85;;
48487;SDS011;34289;48.572;13.378;2023-02-11T00:28:02;46.42;;;24.38;;
48487;SDS011;34289;48.572;13.378;2023-02-11T00:30:28;47.85;;;28.20;;
48487;SDS011;34289;48.572;13.378;2023-02-11T00:32:53;54.72;;;28.75;;
48487;SDS011;34289;48.572;13.378;2023-02-11T00:35:19;50.75;;;28.00;;
48487;SDS011;34289;48.572;13.378;2023-02-11T00:37:45;44.80;;;24.67;;
48487;SDS011;34289;48.572;13.378;2023-02-11T00:40:10;49.88;;;26.70;;
48487;SDS011;34289;48.572;13.378;2023-02-11T00:42:36;53.28;;;29.35;;
48487;SDS011;34289;48.572;13.378;2023-02-11T00:45:02;61.35;;;31.65;;
48487;SDS011;34289;48.572;13.378;2023-02-11T00:47:28;53.65;;;30.25;;
48487;SDS011;34289;48.572;13.378;2023-02-11T00:49:54;62.08;;;30.20;;
48487;SDS011;34289;48.572;13.378;2023-02-11T00:52:19;50.80;;;28.58;;
48487;SDS011;34289;48.572;13.378;2023-02-11T00:54:45;50.38;;;27.52;;
48487;SDS011;34289;48.572;13.378;2023-02-11T00:57:10;47.92;;;26.75;;
48487;SDS011;34289;48.572;13.378;2023-02-11T00:59:36;44.05;;;25.80;;
48487;SDS011;34289;48.572;13.378;2023-02-11T01:02:02;46.35;;;25.92;;
48487;SDS011;34289;48.572;13.378;2023-02-11T01:04:27;48.58;;;26.75;;
48487;SDS011;34289;48.572;13.378;2023-02-11T01:06:53;46.47;;;26.42;;
48487;SDS011;34289;48.572;13.378;2023-02-11T01:09:18;52.55;;;28.77;;
48487;SDS011;34289;48.572;13.378;2023-02-11T01:11:45;56.75;;;29.83;;
48487;SDS011;34289;48.572;13.378;2023-02-11T01:14:11;47.25;;;27.40;;
48487;SDS011;34289;48.572;13.378;2023-02-11T01:16:37;55.25;;;29.65;;
48487;SDS011;34289;48.572;13.378;2023-02-11T01:19:02;46.83;;;25.00;;
48487;SDS011;34289;48.572;13.378;2023-02-11T01:21:28;50.92;;;27.52;;
48487;SDS011;34289;48.572;13.378;2023-02-11T01:23:54;46.67;;;27.17;;
48487;SDS011;34289;48.572;13.378;2023-02-11T01:26:19;44.72;;;26.63;;
48487;SDS011;34289;48.572;13.378;2023-02-11T01:28:45;45.53;;;25.85;;
48487;SDS011;34289;48.572;13.378;2023-02-11T01:31:10;41.33;;;22.40;;
48487;SDS011;34289;48.572;13.378;2023-02-11T01:33:36;44.67;;;25.15;;
48487;SDS011;34289;48.572;13.378;2023-02-11T01:36:02;47.40;;;26.75;;
48487;SDS011;34289;48.572;13.378;2023-02-11T01:38:29;55.10;;;28.38;;
48487;SDS011;34289;48.572;13.378;2023-02-11T01:40:57;48.33;;;26.23;;
48487;SDS011;34289;48.572;13.378;2023-02-11T01:43:25;53.78;;;28.55;;
48487;SDS011;34289;48.572;13.378;2023-02-11T01:48:23;53.65;;;28.98;;
48487;SDS011;34289;48.572;13.378;2023-02-11T01:50:58;46.13;;;26.90;;
48487;SDS011;34289;48.572;13.378;2023-02-11T01:53:46;46.25;;;25.95;;
48487;SDS011;34289;48.572;13.378;2023-02-11T01:56:33;49.03;;;27.23;;
48487;SDS011;34289;48.572;13.378;2023-02-11T02:00:23;55.50;;;28.55;;
48487;SDS011;34289;48.572;13.378;2023-02-11T02:02:32;56.75;;;27.85;;
48487;SDS011;34289;48.572;13.378;2023-02-11T02:05:04;46.88;;;27.15;;
48487;SDS011;34289;48.572;13.378;2023-02-11T02:10:59;43.47;;;22.50;;
48487;SDS011;34289;48.572;13.378;2023-02-11T02:13:26;43.03;;;24.35;;
48487;SDS011;34289;48.572;13.378;2023-02-11T02:15:54;47.67;;;26.30;;
48487;SDS011;34289;48.572;13.378;2023-02-11T02:18:29;47.60;;;26.77;;
48487;SDS011;34289;48.572;13.378;2023-02-11T02:30:07;47.75;;;24.08;;
48487;SDS011;34289;48.572;13.378;2023-02-11T02:36:06;45.78;;;25.85;;
48487;SDS011;34289;48.572;13.378;2023-02-11T02:38:50;49.80;;;26.77;;
48487;SDS011;34289;48.572;13.378;2023-02-11T02:41:23;54.38;;;26.85;;
48487;SDS011;34289;48.572;13.378;2023-02-11T02:43:54;53.67;;;27.38;;
48487;SDS011;34289;48.572;13.378;2023-02-11T02:46:24;50.50;;;25.90;;
48487;SDS011;34289;48.572;13.378;2023-02-11T02:48:55;42.83;;;24.75;;
48487;SDS011;34289;48.572;13.378;2023-02-11T02:56:47;48.22;;;27.58;;
48487;SDS011;34289;48.572;13.378;2023-02-11T03:02:14;41.90;;;26.10;;
48487;SDS011;34289;48.572;13.378;2023-02-11T03:05:02;36.22;;;20.00;;
48487;SDS011;34289;48.572;13.378;2023-02-11T03:10:47;48.08;;;25.88;;
48487;SDS011;34289;48.572;13.378;2023-02-11T03:13:15;48.55;;;24.50;;
48487;SDS011;34289;48.572;13.378;2023-02-11T03:15:45;44.78;;;25.60;;
48487;SDS011;34289;48.572;13.378;2023-02-11T03:18:14;50.03;;;27.80;;
48487;SDS011;34289;48.572;13.378;2023-02-11T03:20:43;44.67;;;25.85;;
48487;SDS011;34289;48.572;13.378;2023-02-11T03:23:28;43.47;;;25.95;;
48487;SDS011;34289;48.572;13.378;2023-02-11T03:26:04;45.45;;;26.08;;
48487;SDS011;34289;48.572;13.378;2023-02-11T03:34:08;41.72;;;24.20;;
48487;SDS011;34289;48.572;13.378;2023-02-11T03:36:40;44.58;;;25.30;;
48487;SDS011;34289;48.572;13.378;2023-02-11T03:39:15;49.13;;;27.13;;
48487;SDS011;34289;48.572;13.378;2023-02-11T03:41:44;51.03;;;27.92;;
48487;SDS011;34289;48.572;13.378;2023-02-11T03:44:13;43.65;;;26.67;;
48487;SDS011;34289;48.572;13.378;2023-02-11T03:46:41;50.13;;;26.38;;
48487;SDS011;34289;48.572;13.378;2023-02-11T03:49:12;51.28;;;26.27;;
48487;SDS011;34289;48.572;13.378;2023-02-11T03:51:41;55.58;;;29.60;;
48487;SDS011;34289;48.572;13.378;2023-02-11T03:54:10;48.22;;;26.38;;
48487;SDS011;34289;48.572;13.378;2023-02-11T03:56:42;50.38;;;25.45;;
48487;SDS011;34289;48.572;13.378;2023-02-11T03:59:19;38.03;;;21.83;;
48487;SDS011;34289;48.572;13.378;2023-02-11T04:01:45;51.63;;;26.30;;
48487;SDS011;34289;48.572;13.378;2023-02-11T04:04:11;44.70;;;26.20;;
48487;SDS011;34289;48.572;13.378;2023-02-11T04:06:37;48.40;;;26.13;;
48487;SDS011;34289;48.572;13.378;2023-02-11T04:09:03;50.35;;;27.13;;
48487;SDS011;34289;48.572;13.378;2023-02-11T04:11:28;44.75;;;26.25;;
48487;SDS011;34289;48.572;13.378;2023-02-11T04:13:54;46.15;;;26.65;;
48487;SDS011;34289;48.572;13.378;2023-02-11T04:16:19;49.50;;;23.95;;
48487;SDS011;34289;48.572;13.378;2023-02-11T04:18:45;45.28;;;25.90;;
48487;SDS011;34289;48.572;13.378;2023-02-11T04:21:11;43.65;;;24.55;;
48487;SDS011;34289;48.572;13.378;2023-02-11T04:23:36;48.60;;;24.83;;
48487;SDS011;34289;48.572;13.378;2023-02-11T04:26:02;44.17;;;25.63;;
48487;SDS011;34289;48.572;13.378;2023-02-11T04:28:28;47.00;;;25.50;;
48487;SDS011;34289;48.572;13.378;2023-02-11T04:30:54;46.40;;;24.48;;
48487;SDS011;34289;48.572;13.378;2023-02-11T04:33:20;46.53;;;26.60;;
48487;SDS011;34289;48.572;13.378;2023-02-11T04:35:46;51.85;;;27.90;;
48487;SDS011;34289;48.572;13.378;2023-02-11T04:38:12;45.60;;;26.23;;
48487;SDS011;34289;48.572;13.378;2023-02-11T04:40:38;48.65;;;27.77;;
48487;SDS011;34289;48.572;13.378;2023-02-11T04:43:03;60.25;;;31.33;;
48487;SDS011;34289;48.572;13.378;2023-02-11T04:45:30;48.65;;;26.02;;
48487;SDS011;34289;48.572;13.378;2023-02-11T04:47:55;50.97;;;29.23;;
48487;SDS011;34289;48.572;13.378;2023-02-11T04:50:21;43.78;;;25.63;;
48487;SDS011;34289;48.572;13.378;2023-02-11T04:52:47;48.58;;;26.08;;
48487;SDS011;34289;48.572;13.378;2023-02-11T04:55:12;40.75;;;24.40;;
48487;SDS011;34289;48.572;13.378;2023-02-11T04:57:38;37.03;;;20.60;;
48487;SDS011;34289;48.572;13.378;2023-02-11T05:00:04;49.35;;;28.75;;
48487;SDS011;34289;48.572;13.378;2023-02-11T05:02:30;55.13;;;29.48;;
48487;SDS011;34289;48.572;13.378;2023-02-11T05:04:56;58.75;;;32.15;;
48487;SDS011;34289;48.572;13.378;2023-02-11T05:07:21;54.72;;;29.00;;
48487;SDS011;34289;48.572;13.378;2023-02-11T05:09:47;52.72;;;28.05;;
48487;SDS011;34289;48.572;13.378;2023-02-11T05:12:13;50.22;;;28.48;;
48487;SDS011;34289;48.572;13.378;2023-02-11T05:14:38;50.85;;;27.08;;
48487;SDS011;34289;48.572;13.378;2023-02-11T05:17:04;44.70;;;25.50;;
48487;SDS011;34289;48.572;13.378;2023-02-11T05:19:30;42.47;;;24.92;;
48487;SDS011;34289;48.572;13.378;2023-02-11T05:21:56;46.85;;;26.48;;
48487;SDS011;34289;48.572;13.378;2023-02-11T05:24:21;49.58;;;28.73;;
48487;SDS011;34289;48.572;13.378;2023-02-11T05:26:47;55.80;;;29.55;;
48487;SDS011;34289;48.572;13.378;2023-02-11T05:29:13;51.97;;;28.58;;
48487;SDS011;34289;48.572;13.378;2023-02-11T05:31:38;68.97;;;35.35;;
48487;SDS011;34289;48.572;13.378;2023-02-11T05:34:04;65.10;;;34.03;;
48487;SDS011;34289;48.572;13.378;2023-02-11T05:36:29;58.67;;;31.35;;
48487;SDS011;34289;48.572;13.378;2023-02-11T05:38:55;66.95;;;35.03;;
48487;SDS011;34289;48.572;13.378;2023-02-11T05:41:21;50.65;;;29.42;;
48487;SDS011;34289;48.572;13.378;2023-02-11T05:43:47;61.60;;;30.13;;
48487;SDS011;34289;48.572;13.378;2023-02-11T05:46:15;49.40;;;29.98;;
48487;SDS011;34289;48.572;13.378;2023-02-11T05:48:41;56.58;;;30.63;;
48487;SDS011;34289;48.572;13.378;2023-02-11T05:51:06;54.45;;;30.13;;
48487;SDS011;34289;48.572;13.378;2023-02-11T05:53:32;58.28;;;32.10;;
48487;SDS011;34289;48.572;13.378;2023-02-11T05:55:58;53.25;;;29.50;;
48487;SDS011;34289;48.572;13.378;2023-02-11T05:58:23;54.95;;;29.70;;
48487;SDS011;34289;48.572;13.378;2023-02-11T06:00:49;53.90;;;30.83;;
48487;SDS011;34289;48.572;13.378;2023-02-11T06:03:14;51.50;;;29.27;;
48487;SDS011;34289;48.572;13.378;2023-02-11T06:05:43;53.90;;;30.48;;
48487;SDS011;34289;48.572;13.378;2023-02-11T06:08:09;52.13;;;29.38;;
48487;SDS011;34289;48.572;13.378;2023-02-11T06:10:35;50.10;;;28.05;;
48487;SDS011;34289;48.572;13.378;2023-02-11T06:13:00;54.75;;;29.40;;
48487;SDS011;34289;48.572;13.378;2023-02-11T06:15:26;52.38;;;31.30;;
48487;SDS011;34289;48.572;13.378;2023-02-11T06:17:52;62.50;;;32.90;;
48487;SDS011;34289;48.572;13.378;2023-02-11T06:20:18;58.53;;;30.85;;
48487;SDS011;34289;48.572;13.378;2023-02-11T06:22:43;60.85;;;30.30;;
48487;SDS011;34289;48.572;13.378;2023-02-11T06:25:09;55.85;;;30.63;;
48487;SDS011;34289;48.572;13.378;2023-02-11T06:27:35;58.92;;;32.92;;
48487;SDS011;34289;48.572;13.378;2023-02-11T06:30:02;55.78;;;32.38;;
48487;SDS011;34289;48.572;13.378;2023-02-11T06:32:28;59.30;;;32.38;;
48487;SDS011;34289;48.572;13.378;2023-02-11T06:34:54;55.55;;;33.10;;
48487;SDS011;34289;48.572;13.378;2023-02-11T06:37:19;52.55;;;32.90;;
48487;SDS011;34289;48.572;13.378;2023-02-11T06:39:45;56.38;;;32.13;;
48487;SDS011;34289;48.572;13.378;2023-02-11T06:42:11;55.70;;;31.05;;
48487;SDS011;34289;48.572;13.378;2023-02-11T06:44:36;52.55;;;31.08;;
48487;SDS011;34289;48.572;13.378;2023-02-11T06:47:02;52.92;;;28.92;;
48487;SDS011;34289;48.572;13.378;2023-02-11T06:49:28;53.85;;;29.65;;
48487;SDS011;34289;48.572;13.378;2023-02-11T06:51:54;49.83;;;26.65;;
48487;SDS011;34289;48.572;13.378;2023-02-11T06:54:19;58.80;;;32.10;;
48487;SDS011;34289;48.572;13.378;2023-02-11T06:56:45;61.40;;;34.22;;
48487;SDS011;34289;48.572;13.378;2023-02-11T06:59:14;54.97;;;31.35;;
48487;SDS011;34289;48.572;13.378;2023-02-11T07:01:40;58.88;;;32.72;;
48487;SDS011;34289;48.572;13.378;2023-02-11T07:04:06;58.30;;;31.08;;
48487;SDS011;34289;48.572;13.378;2023-02-11T07:06:32;63.63;;;32.25;;
48487;SDS011;34289;48.572;13.378;2023-02-11T07:08:57;57.90;;;32.30;;
48487;SDS011;34289;48.572;13.378;2023-02-11T07:11:25;56.22;;;31.95;;
48487;SDS011;34289;48.572;13.378;2023-02-11T07:13:53;57.47;;;32.55;;
48487;SDS011;34289;48.572;13.378;2023-02-11T07:16:23;63.75;;;34.15;;
48487;SDS011;34289;48.572;13.378;2023-02-11T07:18:49;60.90;;;34.33;;
48487;SDS011;34289;48.572;13.378;2023-02-11T07:21:16;58.72;;;31.80;;
48487;SDS011;34289;48.572;13.378;2023-02-11T07:23:44;59.50;;;32.95;;
48487;SDS011;34289;48.572;13.378;2023-02-11T07:26:12;52.20;;;33.38;;
48487;SDS011;34289;48.572;13.378;2023-02-11T07:28:40;64.13;;;35.80;;
48487;SDS011;34289;48.572;13.378;2023-02-11T07:31:07;61.42;;;33.70;;
48487;SDS011;34289;48.572;13.378;2023-02-11T07:33:38;66.35;;;36.13;;
48487;SDS011;34289;48.572;13.378;2023-02-11T07:36:04;67.75;;;34.72;;
48487;SDS011;34289;48.572;13.378;2023-02-11T07:38:31;64.35;;;36.38;;
48487;SDS011;34289;48.572;13.378;2023-02-11T07:41:04;68.20;;;35.40;;
48487;SDS011;34289;48.572;13.378;2023-02-11T07:43:31;68.32;;;37.88;;
48487;SDS011;34289;48.572;13.378;2023-02-11T07:45:58;65.38;;;35.60;;
48487;SDS011;34289;48.572;13.378;2023-02-11T07:48:26;62.42;;;35.83;;
48487;SDS011;34289;48.572;13.378;2023-02-11T07:50:52;64.43;;;36.33;;
48487;SDS011;34289;48.572;13.378;2023-02-11T07:53:18;63.55;;;36.70;;
48487;SDS011;34289;48.572;13.378;2023-02-11T07:55:43;60.58;;;33.60;;
48487;SDS011;34289;48.572;13.378;2023-02-11T07:58:09;56.75;;;32.53;;
48487;SDS011;34289;48.572;13.378;2023-02-11T08:00:35;64.57;;;35.28;;
48487;SDS011;34289;48.572;13.378;2023-02-11T08:03:00;63.08;;;35.33;;
48487;SDS011;34289;48.572;13.378;2023-02-11T08:05:26;68.45;;;37.60;;
48487;SDS011;34289;48.572;13.378;2023-02-11T08:07:52;63.72;;;36.30;;
48487;SDS011;34289;48.572;13.378;2023-02-11T08:10:19;71.60;;;38.80;;
48487;SDS011;34289;48.572;13.378;2023-02-11T08:12:45;68.78;;;38.38;;
48487;SDS011;34289;48.572;13.378;2023-02-11T08:15:11;67.47;;;36.92;;
48487;SDS011;34289;48.572;13.378;2023-02-11T08:17:37;78.47;;;42.03;;
48487;SDS011;34289;48.572;13.378;2023-02-11T08:20:03;60.33;;;35.92;;
48487;SDS011;34289;48.572;13.378;2023-02-11T08:22:32;70.90;;;38.83;;
48487;SDS011;34289;48.572;13.378;2023-02-11T08:24:59;62.42;;;37.97;;
48487;SDS011;34289;48.572;13.378;2023-02-11T08:27:24;68.40;;;38.65;;
48487;SDS011;34289;48.572;13.378;2023-02-11T08:29:51;64.57;;;36.60;;
48487;SDS011;34289;48.572;13.378;2023-02-11T08:32:18;66.35;;;38.28;;
48487;SDS011;34289;48.572;13.378;2023-02-11T08:34:43;63.95;;;37.13;;
48487;SDS011;34289;48.572;13.378;2023-02-11T08:37:09;68.60;;;37.42;;
48487;SDS011;34289;48.572;13.378;2023-02-11T08:39:35;68.50;;;36.40;;
48487;SDS011;34289;48.572;13.378;2023-02-11T08:42:01;71.20;;;38.75;;
48487;SDS011;34289;48.572;13.378;2023-02-11T08:44:27;68.30;;;39.22;;
48487;SDS011;34289;48.572;13.378;2023-02-11T08:46:54;67.68;;;39.53;;
48487;SDS011;34289;48.572;13.378;2023-02-11T08:49:20;78.90;;;41.08;;
48487;SDS011;34289;48.572;13.378;2023-02-11T08:51:46;68.70;;;39.78;;
48487;SDS011;34289;48.572;13.378;2023-02-11T08:54:12;75.45;;;41.75;;
48487;SDS011;34289;48.572;13.378;2023-02-11T08:56:38;68.80;;;37.17;;
48487;SDS011;34289;48.572;13.378;2023-02-11T08:59:04;73.25;;;41.67;;
48487;SDS011;34289;48.572;13.378;2023-02-11T09:01:31;67.85;;;39.72;;
48487;SDS011;34289;48.572;13.378;2023-02-11T09:03:57;69.80;;;39.00;;
48487;SDS011;34289;48.572;13.378;2023-02-11T09:06:24;66.65;;;39.70;;
48487;SDS011;34289;48.572;13.378;2023-02-11T09:08:51;75.95;;;40.50;;
48487;SDS011;34289;48.572;13.378;2023-02-11T09:11:20;73.97;;;41.88;;
48487;SDS011;34289;48.572;13.378;2023-02-11T09:13:49;73.78;;;39.70;;
48487;SDS011;34289;48.572;13.378;2023-02-11T09:16:19;28.15;;;16.08;;
48487;SDS011;34289;48.572;13.378;2023-02-11T09:18:50;70.93;;;38.40;;
48487;SDS011;34289;48.572;13.378;2023-02-11T09:21:17;67.97;;;37.95;;
48487;SDS011;34289;48.572;13.378;2023-02-11T09:23:44;71.07;;;37.75;;
48487;SDS011;34289;48.572;13.378;2023-02-11T09:26:15;67.90;;;40.42;;
48487;SDS011;34289;48.572;13.378;2023-02-11T09:28:43;79.45;;;40.88;;
48487;SDS011;34289;48.572;13.378;2023-02-11T09:31:10;73.00;;;41.33;;
48487;SDS011;34289;48.572;13.378;2023-02-11T09:33:38;72.47;;;39.45;;
48487;SDS011;34289;48.572;13.378;2023-02-11T09:36:06;70.20;;;40.20;;
48487;SDS011;34289;48.572;13.378;2023-02-11T09:38:32;69.22;;;45.10;;
48487;SDS011;34289;48.572;13.378;2023-02-11T09:40:58;65.75;;;40.47;;
48487;SDS011;34289;48.572;13.378;2023-02-11T09:43:35;65.88;;;39.20;;
48487;SDS011;34289;48.572;13.378;2023-02-11T09:46:08;65.60;;;37.92;;
48487;SDS011;34289;48.572;13.378;2023-02-11T09:48:39;73.35;;;41.20;;
48487;SDS011;34289;48.572;13.378;2023-02-11T09:51:12;61.67;;;37.75;;
48487;SDS011;34289;48.572;13.378;2023-02-11T09:53:44;65.40;;;37.28;;
48487;SDS011;34289;48.572;13.378;2023-02-11T09:56:13;70.38;;;40.92;;
48487;SDS011;34289;48.572;13.378;2023-02-11T09:58:40;63.67;;;38.67;;
48487;SDS011;34289;48.572;13.378;2023-02-11T10:06:30;65.85;;;38.78;;
48487;SDS011;34289;48.572;13.378;2023-02-11T10:14:52;65.57;;;39.65;;
48487;SDS011;34289;48.572;13.378;2023-02-11T10:20:38;73.50;;;43.92;;
48487;SDS011;34289;48.572;13.378;2023-02-11T10:23:24;86.65;;;47.92;;
48487;SDS011;34289;48.572;13.378;2023-02-11T10:25:52;77.93;;;45.92;;
48487;SDS011;34289;48.572;13.378;2023-02-11T10:28:26;86.22;;;47.75;;
48487;SDS011;34289;48.572;13.378;2023-02-11T10:30:56;74.25;;;43.22;;
48487;SDS011;34289;48.572;13.378;2023-02-11T10:33:33;86.80;;;46.33;;
48487;SDS011;34289;48.572;13.378;2023-02-11T10:36:08;75.80;;;44.87;;
48487;SDS011;34289;48.572;13.378;2023-02-11T10:38:35;77.30;;;45.70;;
48487;SDS011;34289;48.572;13.378;2023-02-11T10:41:01;76.65;;;43.90;;
48487;SDS011;34289;48.572;13.378;2023-02-11T10:43:29;70.93;;;44.00;;
48487;SDS011;34289;48.572;13.378;2023-02-11T10:45:56;80.15;;;46.30;;
48487;SDS011;34289;48.572;13.378;2023-02-11T10:48:42;63.78;;;39.97;;
48487;SDS011;34289;48.572;13.378;2023-02-11T10:51:21;74.82;;;44.55;;
48487;SDS011;34289;48.572;13.378;2023-02-11T10:56:30;70.93;;;43.00;;
48487;SDS011;34289;48.572;13.378;2023-02-11T10:59:02;74.85;;;44.00;;
48487;SDS011;34289;48.572;13.378;2023-02-11T11:02:05;67.88;;;42.15;;
48487;SDS011;34289;48.572;13.378;2023-02-11T11:04:43;70.25;;;42.78;;
48487;SDS011;34289;48.572;13.378;2023-02-11T11:07:11;71.68;;;44.40;;
48487;SDS011;34289;48.572;13.378;2023-02-11T11:09:59;74.95;;;42.33;;
48487;SDS011;34289;48.572;13.378;2023-02-11T11:15:01;67.28;;;41.33;;
48487;SDS011;34289;48.572;13.378;2023-02-11T11:17:40;72.60;;;40.80;;
48487;SDS011;34289;48.572;13.378;2023-02-11T11:22:53;69.28;;;38.40;;
48487;SDS011;34289;48.572;13.378;2023-02-11T11:25:59;68.90;;;42.03;;
48487;SDS011;34289;48.572;13.378;2023-02-11T11:28:29;67.30;;;44.00;;
48487;SDS011;34289;48.572;13.378;2023-02-11T11:31:00;65.40;;;42.30;;
48487;SDS011;34289;48.572;13.378;2023-02-11T11:33:27;76.00;;;43.78;;
48487;SDS011;34289;48.572;13.378;2023-02-11T11:35:57;68.28;;;42.72;;
48487;SDS011;34289;48.572;13.378;2023-02-11T11:38:34;71.22;;;44.75;;
48487;SDS011;34289;48.572;13.378;2023-02-11T11:41:35;66.10;;;41.47;;
48487;SDS011;34289;48.572;13.378;2023-02-11T11:46:29;70.82;;;42.45;;
48487;SDS011;34289;48.572;13.378;2023-02-11T11:49:02;59.88;;;38.08;;
48487;SDS011;34289;48.572;13.378;2023-02-11T11:51:33;70.00;;;40.92;;
48487;SDS011;34289;48.572;13.378;2023-02-11T11:54:03;78.05;;;44.58;;
48487;SDS011;34289;48.572;13.378;2023-02-11T11:56:33;69.53;;;41.55;;
48487;SDS011;34289;48.572;13.378;2023-02-11T11:59:09;69.10;;;41.33;;
48487;SDS011;34289;48.572;13.378;2023-02-11T12:04:35;63.85;;;39.38;;
48487;SDS011;34289;48.572;13.378;2023-02-11T12:12:41;65.13;;;38.85;;
48487;SDS011;34289;48.572;13.378;2023-02-11T12:15:29;67.60;;;40.72;;
48487;SDS011;34289;48.572;13.378;2023-02-11T12:18:15;58.08;;;36.20;;
48487;SDS011;34289;48.572;13.378;2023-02-11T12:28:23;51.47;;;32.05;;
48487;SDS011;34289;48.572;13.378;2023-02-11T12:31:07;51.83;;;31.67;;
48487;SDS011;34289;48.572;13.378;2023-02-11T12:36:34;43.22;;;26.45;;
48487;SDS011;34289;48.572;13.378;2023-02-11T12:41:58;42.40;;;26.05;;
48487;SDS011;34289;48.572;13.378;2023-02-11T12:50:32;42.17;;;26.10;;
48487;SDS011;34289;48.572;13.378;2023-02-11T12:53:25;38.60;;;26.83;;
48487;SDS011;34289;48.572;13.378;2023-02-11T12:56:28;40.28;;;25.73;;
48487;SDS011;34289;48.572;13.378;2023-02-11T12:59:03;37.70;;;25.23;;
48487;SDS011;34289;48.572;13.378;2023-02-11T13:01:37;41.50;;;26.08;;
48487;SDS011;34289;48.572;13.378;2023-02-11T13:06:38;40.00;;;25.23;;
48487;SDS011;34289;48.572;13.378;2023-02-11T13:09:12;37.30;;;24.90;;
48487;SDS011;34289;48.572;13.378;2023-02-11T13:11:45;42.22;;;26.13;;
48487;SDS011;34289;48.572;13.378;2023-02-11T13:14:23;41.13;;;27.08;;
48487;SDS011;34289;48.572;13.378;2023-02-11T13:16:59;44.97;;;26.45;;
48487;SDS011;34289;48.572;13.378;2023-02-11T13:19:39;39.88;;;26.48;;
48487;SDS011;34289;48.572;13.378;2023-02-11T13:25:39;43.00;;;28.25;;
48487;SDS011;34289;48.572;13.378;2023-02-11T13:30:56;41.30;;;27.13;;
48487;SDS011;34289;48.572;13.378;2023-02-11T13:38:29;45.03;;;28.35;;
48487;SDS011;34289;48.572;13.378;2023-02-11T13:43:30;41.70;;;27.02;;
48487;SDS011;34289;48.572;13.378;2023-02-11T13:46:02;43.50;;;29.23;;
48487;SDS011;34289;48.572;13.378;2023-02-11T13:48:34;43.72;;;28.27;;
48487;SDS011;34289;48.572;13.378;2023-02-11T13:51:13;44.17;;;28.65;;
48487;SDS011;34289;48.572;13.378;2023-02-11T13:53:46;43.65;;;28.13;;
48487;SDS011;34289;48.572;13.378;2023-02-11T13:56:31;41.22;;;28.40;;
48487;SDS011;34289;48.572;13.378;2023-02-11T13:58:58;43.13;;;28.85;;
48487;SDS011;34289;48.572;13.378;2023-02-11T14:04:17;46.17;;;28.00;;
48487;SDS011;34289;48.572;13.378;2023-02-11T14:13:18;37.58;;;26.58;;
48487;SDS011;34289;48.572;13.378;2023-02-11T14:16:19;38.97;;;25.58;;
48487;SDS011;34289;48.572;13.378;2023-02-11T14:40:21;38.90;;;25.55;;
48487;SDS011;34289;48.572;13.378;2023-02-11T14:42:49;36.83;;;25.15;;
48487;SDS011;34289;48.572;13.378;2023-02-11T14:45:18;38.90;;;25.33;;
48487;SDS011;34289;48.572;13.378;2023-02-11T14:48:12;68.30;;;35.83;;
48487;SDS011;34289;48.572;13.378;2023-02-11T14:50:42;59.78;;;33.33;;
48487;SDS011;34289;48.572;13.378;2023-02-11T14:53:13;62.70;;;34.40;;
48487;SDS011;34289;48.572;13.378;2023-02-11T14:55:42;44.42;;;27.30;;
48487;SDS011;34289;48.572;13.378;2023-02-11T14:58:15;37.67;;;24.42;;
48487;SDS011;34289;48.572;13.378;2023-02-11T15:00:56;37.40;;;24.85;;
48487;SDS011;34289;48.572;13.378;2023-02-11T15:03:31;41.03;;;25.20;;
48487;SDS011;34289;48.572;13.378;2023-02-11T15:05:59;41.53;;;25.77;;
48487;SDS011;34289;48.572;13.378;2023-02-11T15:08:29;36.95;;;25.63;;
48487;SDS011;34289;48.572;13.378;2023-02-11T15:10:55;38.20;;;24.85;;
48487;SDS011;34289;48.572;13.378;2023-02-11T15:13:23;37.13;;;24.40;;
48487;SDS011;34289;48.572;13.378;2023-02-11T15:15:52;46.03;;;25.92;;
48487;SDS011;34289;48.572;13.378;2023-02-11T15:18:22;36.72;;;26.40;;
48487;SDS011;34289;48.572;13.378;2023-02-11T15:20:52;45.58;;;26.85;;
48487;SDS011;34289;48.572;13.378;2023-02-11T15:23:22;40.38;;;26.08;;
48487;SDS011;34289;48.572;13.378;2023-02-11T15:25:50;45.78;;;28.20;;
48487;SDS011;34289;48.572;13.378;2023-02-11T15:28:26;37.63;;;25.27;;
48487;SDS011;34289;48.572;13.378;2023-02-11T15:31:04;42.10;;;26.35;;
48487;SDS011;34289;48.572;13.378;2023-02-11T15:33:39;40.72;;;26.70;;
48487;SDS011;34289;48.572;13.378;2023-02-11T15:36:05;127.55;;;56.53;;
48487;SDS011;34289;48.572;13.378;2023-02-11T15:38:31;63.53;;;35.72;;
48487;SDS011;34289;48.572;13.378;2023-02-11T15:40:58;42.75;;;27.17;;
48487;SDS011;34289;48.572;13.378;2023-02-11T15:43:47;39.85;;;26.40;;
48487;SDS011;34289;48.572;13.378;2023-02-11T15:46:14;38.67;;;26.13;;
48487;SDS011;34289;48.572;13.378;2023-02-11T15:48:48;40.15;;;26.38;;
48487;SDS011;34289;48.572;13.378;2023-02-11T15:51:18;44.75;;;28.73;;
48487;SDS011;34289;48.572;13.378;2023-02-11T15:56:30;54.03;;;34.10;;
48487;SDS011;34289;48.572;13.378;2023-02-11T15:59:48;42.50;;;29.77;;
48487;SDS011;34289;48.572;13.378;2023-02-11T16:01:55;45.95;;;30.75;;
48487;SDS011;34289;48.572;13.378;2023-02-11T16:04:30;44.10;;;28.20;;
48487;SDS011;34289;48.572;13.378;2023-02-11T16:06:56;41.58;;;28.35;;
48487;SDS011;34289;48.572;13.378;2023-02-11T16:09:32;49.45;;;28.20;;
48487;SDS011;34289;48.572;13.378;2023-02-11T16:12:01;42.05;;;27.67;;
48487;SDS011;34289;48.572;13.378;2023-02-11T16:14:47;47.53;;;29.20;;
48487;SDS011;34289;48.572;13.378;2023-02-11T16:17:23;43.40;;;27.50;;
48487;SDS011;34289;48.572;13.378;2023-02-11T16:19:51;39.50;;;27.38;;
48487;SDS011;34289;48.572;13.378;2023-02-11T16:22:19;44.20;;;27.50;;
48487;SDS011;34289;48.572;13.378;2023-02-11T16:24:49;46.25;;;27.70;;
48487;SDS011;34289;48.572;13.378;2023-02-11T16:27:21;45.60;;;29.45;;
48487;SDS011;34289;48.572;13.378;2023-02-11T16:29:54;50.00;;;30.27;;
48487;SDS011;34289;48.572;13.378;2023-02-11T16:32:23;47.67;;;30.52;;
48487;SDS011;34289;48.572;13.378;2023-02-11T16:34:51;46.50;;;29.58;;
48487;SDS011;34289;48.572;13.378;2023-02-11T16:37:19;55.88;;;32.75;;
48487;SDS011;34289;48.572;13.378;2023-02-11T16:39:44;58.47;;;34.03;;
48487;SDS011;34289;48.572;13.378;2023-02-11T16:42:10;60.95;;;37.00;;